M I D A S
Marine Information and Data Acquisition System
Tripno 489 of the Zeeleeuw from 2003-04-10 06:47:10 to 2003-04-10 14:06:13
Back to CruiseResearch ActivitiesStationsMapUnderway DataData graphs

EquipmentUnitsComment
TimeDGPSUTC
LatitudeDGPSDM.mWGS84
LongitudeDGPSDM.mWGS84
HeadingGyrodeg 
SOGDGPSknotsSpeed over ground
COGDGPSdegCourse over ground
DepthEcho soundermeters200 kHz
Missing or incorrect values are displayed as -999
Navigation data collected by the RV Zeeleeuw from 2003-04-10 06:47:10 to 2003-04-10 14:06:13
                                                                                    Next 1000 lines
Time Latitude Longitude Heading SOG COG Depth
2003-04-10 06:47:18 51°13.6 2°56.1 124.5 0.1 192 9.5
2003-04-10 06:47:24 51°13.6 2°56.1 123.4 0.1 194 9.6
2003-04-10 06:47:28 51°13.6 2°56.1 122.5 0.1 197 9.5
2003-04-10 06:47:34 51°13.6 2°56.1 121.5 0.1 200 9.5
2003-04-10 06:47:38 51°13.6 2°56.1 120.6 0.1 204 9.5
2003-04-10 06:47:44 51°13.6 2°56.1 119.7 0.1 206 9.6
2003-04-10 06:47:48 51°13.6 2°56.1 118.9 0.1 207 9.6
2003-04-10 06:47:54 51°13.6 2°56.1 118 0.1 204 9.6
2003-04-10 06:47:58 51°13.6 2°56.1 117.1 0.1 203 9.5
2003-04-10 06:48:04 51°13.6 2°56.1 116.2 0.1 201 9.6
2003-04-10 06:48:08 51°13.6 2°56.1 115.4 0.1 209 9.6
2003-04-10 06:48:14 51°13.6 2°56.1 114.6 0.1 235 9.6
2003-04-10 06:48:18 51°13.6 2°56.1 113.9 0.1 270 9.8
2003-04-10 06:48:24 51°13.6 2°56.1 113.5 0.3 290 9.6
2003-04-10 06:48:28 51°13.6 2°56.1 113.2 0.6 290 9.6
2003-04-10 06:48:34 51°13.6 2°56.1 113 1.1 292 9.6
2003-04-10 06:48:38 51°13.6 2°56.09 113 1.4 292 9.7
2003-04-10 06:48:44 51°13.6 2°56.09 113.2 1.8 293 10
2003-04-10 06:48:48 51°13.6 2°56.08 113.4 2.1 293 -999
2003-04-10 06:48:54 51°13.61 2°56.08 113.7 2.3 293 -999
2003-04-10 06:48:58 51°13.61 2°56.07 113.6 2.5 293 -999
2003-04-10 06:49:04 51°13.61 2°56.07 113.3 2.8 293 -999
2003-04-10 06:49:08 51°13.61 2°56.06 113.1 3.1 292 -999
2003-04-10 06:49:14 51°13.61 2°56.05 112.8 3.2 291 -999
2003-04-10 06:49:18 51°13.61 2°56.05 112.7 3.5 290 -999
2003-04-10 06:49:24 51°13.61 2°56.04 112.6 3.7 290 -999
2003-04-10 06:49:28 51°13.62 2°56.03 112.9 3.8 289 -999
2003-04-10 06:49:34 51°13.62 2°56.02 113.5 3.8 289 -999
2003-04-10 06:49:38 51°13.62 2°56.02 114.4 3.8 289 -999
2003-04-10 06:49:44 51°13.62 2°56.01 115.2 3.9 289 -999
2003-04-10 06:49:48 51°13.62 2°56 116.1 4 290 -999
2003-04-10 06:49:54 51°13.63 2°55.99 116.9 4.1 291 -999
2003-04-10 06:49:58 51°13.63 2°55.98 117.8 4.2 292 -999
2003-04-10 06:50:04 51°13.63 2°55.97 118.8 4.2 293 -999
2003-04-10 06:50:08 51°13.63 2°55.96 119.2 4.3 294 -999
2003-04-10 06:50:14 51°13.64 2°55.95 119.3 4.4 295 -999
2003-04-10 06:50:18 51°13.64 2°55.95 119.3 4.4 295 -999
2003-04-10 06:50:24 51°13.64 2°55.94 119 4.3 295 -999
2003-04-10 06:50:28 51°13.64 2°55.93 118.5 4.1 294 -999
2003-04-10 06:50:34 51°13.65 2°55.92 117.8 4 294 -999
2003-04-10 06:50:38 51°13.65 2°55.91 117.2 3.8 293 -999
2003-04-10 06:50:44 51°13.65 2°55.9 116.4 3.8 292 -999
2003-04-10 06:50:48 51°13.65 2°55.9 115.7 3.7 292 -999
2003-04-10 06:50:54 51°13.65 2°55.89 115.1 3.6 291 -999
2003-04-10 06:50:58 51°13.65 2°55.88 114.3 3.6 290 -999
2003-04-10 06:51:04 51°13.66 2°55.88 113.8 3.5 289 -999
2003-04-10 06:51:08 51°13.66 2°55.87 113.7 3.5 288 -999
2003-04-10 06:51:14 51°13.66 2°55.86 113.8 3.5 288 -999
2003-04-10 06:51:18 51°13.66 2°55.85 114.4 3.6 289 5.1
2003-04-10 06:51:24 51°13.66 2°55.84 115.2 3.8 290 11.1
2003-04-10 06:51:28 51°13.66 2°55.84 116.2 4 291 -999
2003-04-10 06:51:34 51°13.67 2°55.83 117.5 4.1 292 -999
2003-04-10 06:51:38 51°13.67 2°55.82 118.6 4.2 294 -999
2003-04-10 06:51:44 51°13.67 2°55.81 119.6 4.1 295 -999
2003-04-10 06:51:48 51°13.67 2°55.8 120.7 4 295 -999
2003-04-10 06:51:54 51°13.68 2°55.8 121.6 3.6 296 -999
2003-04-10 06:51:58 51°13.68 2°55.79 122 3.3 296 11.5
2003-04-10 06:52:04 51°13.68 2°55.79 122.1 2.8 295 11.9
2003-04-10 06:52:08 51°13.68 2°55.78 121.9 2.4 295 12.6
2003-04-10 06:52:14 51°13.68 2°55.78 121.2 1.9 295 12.8
2003-04-10 06:52:18 51°13.68 2°55.78 119.8 1.6 294 12.9
2003-04-10 06:52:24 51°13.68 2°55.77 118.2 1.1 294 12.9
2003-04-10 06:52:28 51°13.68 2°55.77 115.9 0.8 295 12.9
2003-04-10 06:52:34 51°13.68 2°55.77 113.2 0.3 313 12.9
2003-04-10 06:52:38 51°13.68 2°55.78 109.8 0.2 53 12.9
2003-04-10 06:52:44 51°13.68 2°55.78 105.1 0.7 84 13
2003-04-10 06:52:48 51°13.68 2°55.78 99 0.9 85 12.9
2003-04-10 06:52:54 51°13.68 2°55.78 93 1.1 82 12.9
2003-04-10 06:52:58 51°13.68 2°55.78 88.5 1.1 80 12.9
2003-04-10 06:53:04 51°13.68 2°55.79 85.6 0.9 78 13
2003-04-10 06:53:08 51°13.68 2°55.79 83.4 0.6 79 12.9
2003-04-10 06:53:14 51°13.68 2°55.79 81.1 0.2 78 12.9
2003-04-10 06:53:18 51°13.68 2°55.79 79.3 0.1 244 12.9
2003-04-10 06:53:24 51°13.68 2°55.78 78.3 0.4 253 12.9
2003-04-10 06:53:28 51°13.68 2°55.78 78 0.8 253 12.9
2003-04-10 06:53:34 51°13.68 2°55.78 77.8 1 254 12.9
2003-04-10 06:53:38 51°13.68 2°55.78 77.8 1.3 254 12.9
2003-04-10 06:53:44 51°13.68 2°55.77 77.9 1.7 255 12.9
2003-04-10 06:53:48 51°13.68 2°55.77 78.1 1.9 256 -999
2003-04-10 06:53:54 51°13.68 2°55.76 78.4 1.9 257 -999
2003-04-10 06:53:58 51°13.68 2°55.76 78.7 1.7 258 -999
2003-04-10 06:54:04 51°13.68 2°55.76 78.3 1.5 259 -999
2003-04-10 06:54:08 51°13.68 2°55.76 76.9 1.1 261 -999
2003-04-10 06:54:14 51°13.68 2°55.76 74.4 0.8 264 -999
2003-04-10 06:54:18 51°13.68 2°55.76 70.9 0.4 276 -999
2003-04-10 06:54:24 51°13.68 2°55.76 67 0.2 310 -999
2003-04-10 06:54:28 51°13.68 2°55.76 62.4 0.4 23 -999
2003-04-10 06:54:34 51°13.68 2°55.76 57 0.7 33 -999
2003-04-10 06:54:38 51°13.68 2°55.76 51.1 1.1 37 -999
2003-04-10 06:54:44 51°13.68 2°55.76 44.9 1.3 35 -999
2003-04-10 06:54:48 51°13.69 2°55.76 39.1 1.6 31 -999
2003-04-10 06:54:54 51°13.69 2°55.76 33.2 1.8 27 -999
2003-04-10 06:54:58 51°13.69 2°55.77 27.1 2.1 20 -999
2003-04-10 06:55:04 51°13.7 2°55.77 21 2.2 16 -999
2003-04-10 06:55:08 51°13.7 2°55.77 15 2.4 9 12.9
2003-04-10 06:55:14 51°13.7 2°55.77 11.4 2.5 4 13
2003-04-10 06:55:18 51°13.71 2°55.77 7.8 2.6 359 13
2003-04-10 06:55:24 51°13.71 2°55.77 0.8 2.8 353 12.9
2003-04-10 06:55:28 51°13.71 2°55.76 355.1 2.8 348 12.9
2003-04-10 06:55:34 51°13.72 2°55.76 349.6 2.9 342 12.9
2003-04-10 06:55:38 51°13.72 2°55.76 344 3 338 12.9
2003-04-10 06:55:44 51°13.73 2°55.75 338.4 3.2 333 12.7
2003-04-10 06:55:48 51°13.73 2°55.75 332.5 3.3 329 12.4
2003-04-10 06:55:54 51°13.73 2°55.75 329.5 3.5 326 -999
2003-04-10 06:55:58 51°13.74 2°55.74 327.4 3.6 324 11.9
2003-04-10 06:56:04 51°13.74 2°55.74 325.8 3.9 323 11.6
2003-04-10 06:56:08 51°13.75 2°55.73 325.1 4.1 322 11.6
2003-04-10 06:56:14 51°13.75 2°55.72 324.2 4.5 321 11.5
2003-04-10 06:56:18 51°13.76 2°55.72 323.8 4.7 321 11.5
2003-04-10 06:56:24 51°13.76 2°55.71 323.5 5.1 320 11.4
2003-04-10 06:56:28 51°13.77 2°55.7 323.4 5.3 320 11.4
2003-04-10 06:56:34 51°13.78 2°55.69 323.5 5.6 320 11.6
2003-04-10 06:56:38 51°13.78 2°55.69 323.8 5.8 321 11.7
2003-04-10 06:56:44 51°13.79 2°55.67 324.7 6 321 11.9
2003-04-10 06:56:48 51°13.79 2°55.67 325.3 6.1 322 11.9
2003-04-10 06:56:54 51°13.8 2°55.66 326.5 6.3 322 12
2003-04-10 06:56:58 51°13.81 2°55.65 327.5 6.4 323 11.9
2003-04-10 06:57:04 51°13.82 2°55.64 329.1 6.6 325 11.9
2003-04-10 06:57:08 51°13.82 2°55.64 331.1 6.7 326 11.9
2003-04-10 06:57:14 51°13.83 2°55.63 333.3 6.8 329 11.9
2003-04-10 06:57:18 51°13.84 2°55.62 334.5 6.9 330 11.9
2003-04-10 06:57:24 51°13.85 2°55.61 335.8 7 331 11.9
2003-04-10 06:57:28 51°13.86 2°55.61 336.8 7 332 11.9
2003-04-10 06:57:34 51°13.87 2°55.6 338.7 7.1 334 11.9
2003-04-10 06:57:38 51°13.88 2°55.59 339.5 7.2 334 11.9
2003-04-10 06:57:44 51°13.89 2°55.58 339.9 7.4 335 11.8
2003-04-10 06:57:48 51°13.9 2°55.58 339.9 7.5 335 11.9
2003-04-10 06:57:54 51°13.91 2°55.57 339.8 7.6 335 11.9
2003-04-10 06:57:58 51°13.91 2°55.56 340.6 7.7 336 11.9
2003-04-10 06:58:04 51°13.93 2°55.56 340.9 7.8 336 11.9
2003-04-10 06:58:08 51°13.93 2°55.55 340.9 7.9 336 11.8
2003-04-10 06:58:14 51°13.95 2°55.54 341.3 7.9 337 11.8
2003-04-10 06:58:18 51°13.96 2°55.54 341.7 8 337 11.9
2003-04-10 06:58:24 51°13.97 2°55.53 341.4 8 337 11.8
2003-04-10 06:58:28 51°13.98 2°55.52 341.2 8 337 11.8
2003-04-10 06:58:34 51°13.99 2°55.51 341.9 8.1 337 11.9
2003-04-10 06:58:38 51°14 2°55.51 341.8 8.1 337 11.7
2003-04-10 06:58:44 51°14.01 2°55.5 341.2 8.1 336 11.7
2003-04-10 06:58:48 51°14.02 2°55.49 341.2 8.2 336 11.7
2003-04-10 06:58:54 51°14.03 2°55.48 341.6 8.2 336 11.7
2003-04-10 06:58:58 51°14.04 2°55.48 341.8 8.2 336 11.7
2003-04-10 06:59:04 51°14.05 2°55.47 342 8.2 337 11.7
2003-04-10 06:59:08 51°14.06 2°55.46 342.1 8.3 337 11.6
2003-04-10 06:59:14 51°14.07 2°55.46 342.1 8.3 337 11.4
2003-04-10 06:59:18 51°14.08 2°55.45 341.8 8.3 337 11.3
2003-04-10 06:59:24 51°14.09 2°55.44 341.6 8.3 337 11.5
2003-04-10 06:59:28 51°14.1 2°55.44 341.4 8.4 336 11.8
2003-04-10 06:59:34 51°14.11 2°55.43 341.1 8.4 336 11.9
2003-04-10 06:59:38 51°14.12 2°55.42 340.7 8.4 336 11.9
2003-04-10 06:59:44 51°14.14 2°55.41 339.6 8.4 334 11.9
2003-04-10 06:59:48 51°14.14 2°55.4 338.1 8.4 333 -999
2003-04-10 06:59:54 51°14.16 2°55.39 337.5 8.4 332 11.9
2003-04-10 06:59:58 51°14.16 2°55.39 337 8.4 332 -999
2003-04-10 07:00:04 51°14.18 2°55.37 335.2 8.4 330 -999
2003-04-10 07:00:08 51°14.18 2°55.37 333.1 8.5 329 11.9
2003-04-10 07:00:14 51°14.2 2°55.35 331.3 8.5 327 11.9
2003-04-10 07:00:18 51°14.2 2°55.34 329.4 8.5 325 11.8
2003-04-10 07:00:24 51°14.21 2°55.33 328.2 8.5 324 -999
2003-04-10 07:00:28 51°14.22 2°55.32 327.1 8.5 322 12
2003-04-10 07:00:34 51°14.23 2°55.31 325.4 8.6 320 12
2003-04-10 07:00:38 51°14.24 2°55.3 324.3 8.7 319 12
2003-04-10 07:00:44 51°14.25 2°55.28 321.9 9 316 12
2003-04-10 07:00:48 51°14.26 2°55.27 319.9 9.2 315 11.9
2003-04-10 07:00:54 51°14.27 2°55.25 318.2 9.4 313 12
2003-04-10 07:00:58 51°14.28 2°55.23 317.2 9.5 312 12.1
2003-04-10 07:01:04 51°14.29 2°55.21 315 9.7 310 12.1
2003-04-10 07:01:08 51°14.29 2°55.2 313.4 9.8 309 12
2003-04-10 07:01:14 51°14.3 2°55.18 312 9.9 307 12.1
2003-04-10 07:01:18 51°14.31 2°55.17 311.3 10 306 12.1
2003-04-10 07:01:24 51°14.32 2°55.14 310.8 10.1 306 12
2003-04-10 07:01:28 51°14.33 2°55.13 310.6 10.1 306 12
2003-04-10 07:01:34 51°14.34 2°55.11 311.2 10.2 306 12.1
2003-04-10 07:01:38 51°14.34 2°55.09 312 10.2 307 11.7
2003-04-10 07:01:44 51°14.35 2°55.07 312.7 10.2 307 11.9
2003-04-10 07:01:48 51°14.36 2°55.06 312.3 10.3 308 12.3
2003-04-10 07:01:54 51°14.37 2°55.04 313.1 10.3 308 12.4
2003-04-10 07:01:58 51°14.38 2°55.02 314.3 10.3 310 12.1
2003-04-10 07:02:04 51°14.39 2°55 316.4 10.4 312 12.2
2003-04-10 07:02:08 51°14.4 2°54.99 318.6 10.4 315 12.3
2003-04-10 07:02:14 51°14.41 2°54.97 321.1 10.5 318 12.3
2003-04-10 07:02:18 51°14.42 2°54.96 323.9 10.5 320 12.4
2003-04-10 07:02:24 51°14.44 2°54.95 326.2 10.6 323 12.4
2003-04-10 07:02:28 51°14.45 2°54.94 328.8 10.6 326 12.3
2003-04-10 07:02:34 51°14.46 2°54.92 330.8 10.7 329 12
2003-04-10 07:02:38 51°14.47 2°54.91 332.9 10.8 330 12
2003-04-10 07:02:44 51°14.49 2°54.9 334 10.7 331 12
2003-04-10 07:02:48 51°14.5 2°54.89 334.4 10.7 332 11.7
2003-04-10 07:02:54 51°14.51 2°54.88 334.2 10.8 332 11.6
2003-04-10 07:02:58 51°14.53 2°54.87 334.4 10.8 332 11.7
2003-04-10 07:03:04 51°14.54 2°54.85 334.3 11 332 11.6
2003-04-10 07:03:08 51°14.55 2°54.84 333.4 11.1 332 11.6
2003-04-10 07:03:14 51°14.57 2°54.83 333.8 11.3 332 11.6
2003-04-10 07:03:18 51°14.58 2°54.82 332.9 11.4 332 11.7
2003-04-10 07:03:24 51°14.6 2°54.8 332.3 11.5 332 11.6
2003-04-10 07:03:28 51°14.61 2°54.79 332.3 11.6 331 11.5
2003-04-10 07:03:34 51°14.63 2°54.78 331.7 11.6 331 11.4
2003-04-10 07:03:38 51°14.64 2°54.77 331.4 11.7 330 11.4
2003-04-10 07:03:44 51°14.65 2°54.75 331.2 11.8 330 11.2
2003-04-10 07:03:48 51°14.67 2°54.74 331.6 11.8 330 11.3
2003-04-10 07:03:54 51°14.68 2°54.73 331.2 11.9 330 11.2
2003-04-10 07:03:58 51°14.69 2°54.72 331.4 11.9 330 11.3
2003-04-10 07:04:04 51°14.71 2°54.7 331.5 12 329 11.3
2003-04-10 07:04:08 51°14.72 2°54.69 331.2 12 329 11.2
2003-04-10 07:04:14 51°14.74 2°54.67 331.3 12.1 329 11.2
2003-04-10 07:04:18 51°14.75 2°54.66 331.5 12.1 330 11.2
2003-04-10 07:04:24 51°14.77 2°54.65 331.9 12.1 330 11.1
2003-04-10 07:04:28 51°14.78 2°54.64 331.9 12.2 330 11.1
2003-04-10 07:04:34 51°14.8 2°54.62 331.7 12.2 329 11.1
2003-04-10 07:04:38 51°14.81 2°54.61 331 12.2 329 11.2
2003-04-10 07:04:44 51°14.83 2°54.59 330.6 12.2 329 11.1
2003-04-10 07:04:48 51°14.84 2°54.58 330.5 12.2 329 11.1
2003-04-10 07:04:54 51°14.86 2°54.56 330.3 12.2 330 11.1
2003-04-10 07:04:58 51°14.87 2°54.55 330.4 12.2 330 11.2
2003-04-10 07:05:04 51°14.89 2°54.54 330.1 12.2 329 11.2
2003-04-10 07:05:08 51°14.9 2°54.53 329.8 12.2 329 11.1
2003-04-10 07:05:14 51°14.92 2°54.51 329.7 12.2 329 11
2003-04-10 07:05:18 51°14.93 2°54.5 329.6 12.2 329 11.1
2003-04-10 07:05:24 51°14.94 2°54.48 329.4 12.2 329 10.8
2003-04-10 07:05:28 51°14.96 2°54.47 329.4 12.2 329 10.7
2003-04-10 07:05:34 51°14.97 2°54.45 329.5 12.2 329 10.5
2003-04-10 07:05:38 51°14.99 2°54.44 329.7 12.1 329 10.6
2003-04-10 07:05:44 51°15 2°54.43 330.1 12.1 329 10.6
2003-04-10 07:05:48 51°15.01 2°54.42 329.8 12.1 329 10.5
2003-04-10 07:05:54 51°15.03 2°54.4 329.5 12.2 329 10.4
2003-04-10 07:05:58 51°15.04 2°54.39 329.8 12.2 329 10.5
2003-04-10 07:06:04 51°15.06 2°54.37 329.9 12.2 329 10.4
2003-04-10 07:06:08 51°15.07 2°54.36 330 12.3 329 10.5
2003-04-10 07:06:14 51°15.09 2°54.34 329.6 12.3 328 10.7
2003-04-10 07:06:18 51°15.1 2°54.33 329.5 12.2 328 10.6
2003-04-10 07:06:24 51°15.12 2°54.31 329.4 12.2 328 10.5
2003-04-10 07:06:28 51°15.13 2°54.3 329.5 12.3 328 10.7
2003-04-10 07:06:34 51°15.15 2°54.29 329.6 12.3 328 10.7
2003-04-10 07:06:38 51°15.16 2°54.27 329.8 12.3 328 10.6
2003-04-10 07:06:44 51°15.18 2°54.26 329.6 12.3 328 10.8
2003-04-10 07:06:48 51°15.19 2°54.24 329.8 12.4 328 10.8
2003-04-10 07:06:54 51°15.21 2°54.23 329.9 12.5 328 10.8
2003-04-10 07:06:58 51°15.22 2°54.21 329.6 12.7 327 10.9
2003-04-10 07:07:04 51°15.24 2°54.19 328.7 12.9 326 11
2003-04-10 07:07:08 51°15.25 2°54.18 328.3 13 325 10.8
2003-04-10 07:07:14 51°15.27 2°54.16 327.7 13.2 325 11.2
2003-04-10 07:07:18 51°15.28 2°54.15 328 13.3 325 11
2003-04-10 07:07:24 51°15.3 2°54.13 327.3 13.4 325 11
2003-04-10 07:07:28 51°15.31 2°54.11 327.9 13.5 325 11.1
2003-04-10 07:07:34 51°15.33 2°54.09 328 13.5 325 11.3
2003-04-10 07:07:38 51°15.34 2°54.08 328.2 13.6 326 11.4
2003-04-10 07:07:44 51°15.36 2°54.06 328.3 13.7 326 11.4
2003-04-10 07:07:48 51°15.37 2°54.04 328.3 13.7 326 11.6
2003-04-10 07:07:54 51°15.39 2°54.02 328.1 13.8 326 11.5
2003-04-10 07:07:58 51°15.4 2°54.01 328 13.8 326 11.7
2003-04-10 07:08:04 51°15.42 2°53.99 327.8 13.8 326 11.7
2003-04-10 07:08:08 51°15.43 2°53.98 328 13.8 326 11.9
2003-04-10 07:08:14 51°15.45 2°53.96 327.8 13.8 326 11.7
2003-04-10 07:08:18 51°15.47 2°53.94 328 13.8 326 11.7
2003-04-10 07:08:24 51°15.49 2°53.92 328 13.8 326 11.9
2003-04-10 07:08:28 51°15.5 2°53.91 327.7 13.8 326 12.1
2003-04-10 07:08:34 51°15.52 2°53.89 328 13.9 326 12.1
2003-04-10 07:08:38 51°15.53 2°53.87 327.7 13.9 326 12
2003-04-10 07:08:44 51°15.55 2°53.85 328 13.9 326 12.1
2003-04-10 07:08:48 51°15.56 2°53.84 327.9 13.9 326 12.3
2003-04-10 07:08:54 51°15.58 2°53.82 327.8 13.9 326 12.3
2003-04-10 07:08:58 51°15.59 2°53.8 327.9 13.9 326 12.5
2003-04-10 07:09:04 51°15.61 2°53.78 328 13.9 326 12.2
2003-04-10 07:09:08 51°15.63 2°53.77 328.1 13.9 326 12.7
2003-04-10 07:09:14 51°15.64 2°53.75 328 13.9 326 12.6
2003-04-10 07:09:18 51°15.66 2°53.74 328.3 13.9 326 12.7
2003-04-10 07:09:24 51°15.68 2°53.72 328.1 13.9 326 12.8
2003-04-10 07:09:28 51°15.69 2°53.7 328.1 13.9 326 12.9
2003-04-10 07:09:34 51°15.71 2°53.68 327.9 13.9 326 12.9
2003-04-10 07:09:38 51°15.72 2°53.67 328 13.9 326 13
2003-04-10 07:09:44 51°15.74 2°53.65 328.3 13.9 326 13
2003-04-10 07:09:48 51°15.75 2°53.63 328.2 13.9 326 13.1
2003-04-10 07:09:54 51°15.77 2°53.61 328.1 13.9 326 13.1
2003-04-10 07:09:58 51°15.79 2°53.6 328 13.9 326 13.1
2003-04-10 07:10:04 51°15.8 2°53.58 328.2 13.9 326 13.3
2003-04-10 07:10:08 51°15.82 2°53.56 328.3 14 326 13.3
2003-04-10 07:10:14 51°15.84 2°53.54 328 14 326 13.3
2003-04-10 07:10:18 51°15.85 2°53.53 328.1 14 326 13.4
2003-04-10 07:10:24 51°15.87 2°53.51 328 14 326 13.4
2003-04-10 07:10:28 51°15.88 2°53.49 327.9 14 326 13.5
2003-04-10 07:10:34 51°15.9 2°53.47 328.2 14 326 13.5
2003-04-10 07:10:38 51°15.91 2°53.46 328.1 14 326 13.6
2003-04-10 07:10:44 51°15.93 2°53.44 328.1 14.1 326 13.5
2003-04-10 07:10:48 51°15.95 2°53.42 328.1 14 326 13.6
2003-04-10 07:10:54 51°15.97 2°53.4 327.8 14 326 13.7
2003-04-10 07:10:58 51°15.98 2°53.39 327.9 14 326 13.5
2003-04-10 07:11:04 51°16 2°53.37 328.3 14 326 13.6
2003-04-10 07:11:08 51°16.01 2°53.36 328 14 326 13.6
2003-04-10 07:11:14 51°16.03 2°53.34 328.4 14 327 13.6
2003-04-10 07:11:18 51°16.04 2°53.32 329.4 14 327 13.6
2003-04-10 07:11:24 51°16.06 2°53.3 329.4 14 327 13.6
2003-04-10 07:11:28 51°16.08 2°53.29 329.9 14 328 13.7
2003-04-10 07:11:34 51°16.1 2°53.27 330.2 14 328 13.7
2003-04-10 07:11:38 51°16.11 2°53.26 330.4 14 328 13.5
2003-04-10 07:11:44 51°16.13 2°53.24 332 14 329 13.7
2003-04-10 07:11:48 51°16.14 2°53.23 332.2 14 330 13.6
2003-04-10 07:11:54 51°16.16 2°53.21 333.3 14 331 13.7
2003-04-10 07:11:58 51°16.18 2°53.2 333.4 14 331 13.7
2003-04-10 07:12:04 51°16.2 2°53.18 334 14 331 13.8
2003-04-10 07:12:08 51°16.21 2°53.17 334.3 14 332 13.6
2003-04-10 07:12:14 51°16.23 2°53.15 334.5 14.1 332 13.7
2003-04-10 07:12:18 51°16.25 2°53.14 334.8 14.1 332 13.7
2003-04-10 07:12:24 51°16.27 2°53.12 334.7 14.1 332 13.7
2003-04-10 07:12:28 51°16.28 2°53.11 334.7 14.1 332 13.6
2003-04-10 07:12:34 51°16.3 2°53.09 334.8 14.1 332 13.6
2003-04-10 07:12:38 51°16.32 2°53.08 334.8 14.1 332 13.7
2003-04-10 07:12:44 51°16.34 2°53.06 334.8 14 333 14.1
2003-04-10 07:12:48 51°16.35 2°53.05 334.7 14 332 13.7
2003-04-10 07:12:54 51°16.37 2°53.03 334.5 13.9 332 13.5
2003-04-10 07:12:58 51°16.39 2°53.02 334.4 13.9 333 13.6
2003-04-10 07:13:04 51°16.41 2°53.01 334.5 13.9 333 13.6
2003-04-10 07:13:08 51°16.42 2°52.99 334.7 13.9 333 13.7
2003-04-10 07:13:14 51°16.44 2°52.98 334.5 13.9 333 13.7
2003-04-10 07:13:18 51°16.45 2°52.97 334.6 13.9 333 14
2003-04-10 07:13:24 51°16.47 2°52.95 334.6 13.9 333 13.6
2003-04-10 07:13:28 51°16.49 2°52.94 334.5 13.9 333 13.5
2003-04-10 07:13:34 51°16.51 2°52.92 334.4 13.8 333 13.7
2003-04-10 07:13:38 51°16.52 2°52.91 334.5 13.9 333 13.7
2003-04-10 07:13:44 51°16.54 2°52.89 334.5 13.9 333 13.6
2003-04-10 07:13:48 51°16.56 2°52.88 334.5 13.8 333 13.8
2003-04-10 07:13:54 51°16.58 2°52.87 334.5 13.8 333 13.6
2003-04-10 07:13:58 51°16.59 2°52.86 334.5 13.9 333 13.4
2003-04-10 07:14:04 51°16.61 2°52.84 334.5 13.9 333 13.2
2003-04-10 07:14:08 51°16.62 2°52.83 334.5 13.9 333 13.4
2003-04-10 07:14:14 51°16.64 2°52.81 334.4 13.9 333 13.2
2003-04-10 07:14:18 51°16.66 2°52.8 334.4 13.9 333 13.1
2003-04-10 07:14:24 51°16.68 2°52.78 334.7 13.8 333 13
2003-04-10 07:14:28 51°16.69 2°52.77 334.6 13.8 333 12.9
2003-04-10 07:14:34 51°16.71 2°52.76 334.6 13.9 334 12.5
2003-04-10 07:14:38 51°16.73 2°52.75 336 13.8 335 12.4
2003-04-10 07:14:44 51°16.75 2°52.73 336.1 13.8 335 12.2
2003-04-10 07:14:48 51°16.76 2°52.72 336.7 13.7 336 11.5
2003-04-10 07:14:54 51°16.78 2°52.71 337.6 13.7 337 11.5
2003-04-10 07:14:58 51°16.8 2°52.7 338.2 13.8 337 11.5
2003-04-10 07:15:04 51°16.82 2°52.68 339.4 13.8 338 11.6
2003-04-10 07:15:08 51°16.83 2°52.67 339.6 13.9 338 11.6
2003-04-10 07:15:14 51°16.85 2°52.66 340.1 14 339 11.4
2003-04-10 07:15:18 51°16.87 2°52.65 340.5 14 339 11.3
2003-04-10 07:15:24 51°16.89 2°52.64 340.6 14 339 11.2
2003-04-10 07:15:28 51°16.91 2°52.63 340.9 14.1 340 11.4
2003-04-10 07:15:34 51°16.93 2°52.62 341.6 14.1 340 11.6
2003-04-10 07:15:38 51°16.94 2°52.61 342.5 14.2 341 11.7
2003-04-10 07:15:44 51°16.97 2°52.6 342.6 14.2 341 11.9
2003-04-10 07:15:48 51°16.98 2°52.59 343.2 14.3 342 12.1
2003-04-10 07:15:54 51°17 2°52.58 343.5 14.3 342 11.8
2003-04-10 07:15:58 51°17.02 2°52.57 344.5 14.3 343 11.5
2003-04-10 07:16:04 51°17.04 2°52.56 345.7 14.2 344 11.2
2003-04-10 07:16:08 51°17.06 2°52.56 346.5 14.2 345 11.4
2003-04-10 07:16:14 51°17.08 2°52.55 347.2 14.2 346 11.5
2003-04-10 07:16:18 51°17.1 2°52.54 348.3 14.2 347 11.2
2003-04-10 07:16:24 51°17.12 2°52.54 349.5 14.1 348 11.6
2003-04-10 07:16:28 51°17.13 2°52.53 350.5 14.2 349 11.4
2003-04-10 07:16:34 51°17.16 2°52.53 351.6 14.2 350 11.4
2003-04-10 07:16:38 51°17.17 2°52.52 352 14.2 350 11.6
2003-04-10 07:16:44 51°17.2 2°52.52 352.5 14.2 351 11.5
2003-04-10 07:16:48 51°17.21 2°52.51 352.7 14.2 351 11.6
2003-04-10 07:16:54 51°17.24 2°52.51 353.1 14.3 351 11.8
2003-04-10 07:16:58 51°17.25 2°52.5 353.4 14.3 352 11.7
2003-04-10 07:17:04 51°17.27 2°52.5 353.7 14.3 352 11.7
2003-04-10 07:17:08 51°17.29 2°52.49 353.5 14.3 351 11.8
2003-04-10 07:17:14 51°17.31 2°52.49 353.4 14.3 351 11.8
2003-04-10 07:17:18 51°17.33 2°52.48 353.1 14.2 351 12
2003-04-10 07:17:24 51°17.35 2°52.48 352.9 14.2 351 11.9
2003-04-10 07:17:28 51°17.37 2°52.47 352.8 14.3 351 12
2003-04-10 07:17:34 51°17.39 2°52.47 353.3 14.3 351 12
2003-04-10 07:17:38 51°17.41 2°52.46 353.5 14.3 351 12
2003-04-10 07:17:44 51°17.43 2°52.46 353.3 14.4 351 12
2003-04-10 07:17:48 51°17.45 2°52.45 353.1 14.3 351 12.2
2003-04-10 07:17:54 51°17.47 2°52.45 352.9 14.4 351 12.1
2003-04-10 07:17:58 51°17.49 2°52.44 352.8 14.4 351 12
2003-04-10 07:18:04 51°17.51 2°52.44 353.2 14.4 351 12.2
2003-04-10 07:18:08 51°17.53 2°52.43 353 14.4 351 12.1
2003-04-10 07:18:14 51°17.55 2°52.43 353.1 14.3 351 12.1
2003-04-10 07:18:18 51°17.57 2°52.43 353.6 14.3 352 11.9
2003-04-10 07:18:24 51°17.59 2°52.42 355 14.2 353 12.2
2003-04-10 07:18:28 51°17.6 2°52.42 355.9 14.3 354 12.1
2003-04-10 07:18:34 51°17.63 2°52.41 356.5 14.2 355 12.4
2003-04-10 07:18:38 51°17.64 2°52.41 357.6 14.2 355 11.9
2003-04-10 07:18:44 51°17.67 2°52.41 357.2 14.1 355 12.2
2003-04-10 07:18:48 51°17.68 2°52.41 357.8 14.2 355 12.1
2003-04-10 07:18:54 51°17.71 2°52.4 358 14.2 356 12
2003-04-10 07:18:58 51°17.72 2°52.4 358.2 14.2 356 12
2003-04-10 07:19:04 51°17.75 2°52.4 358.2 14.2 356 12.3
2003-04-10 07:19:08 51°17.76 2°52.4 359.4 14.3 357 12.2
2003-04-10 07:19:14 51°17.79 2°52.4 0.6 14.3 358 12.1
2003-04-10 07:19:18 51°17.8 2°52.4 1.2 14.3 359 12.2
2003-04-10 07:19:24 51°17.83 2°52.4 2.1 14.3 359 12.2
2003-04-10 07:19:28 51°17.84 2°52.4 2.4 14.3   12.1
2003-04-10 07:19:34 51°17.87 2°52.4 3 14.4   12.3
2003-04-10 07:19:38 51°17.88 2°52.4 3.3 14.4 1 12.2
2003-04-10 07:19:44 51°17.91 2°52.4 4.2 14.4 2 12.2
2003-04-10 07:19:48 51°17.92 2°52.4 6.3 14.4 4 12.2
2003-04-10 07:19:54 51°17.95 2°52.41 7.2 14.5 5 12.3
2003-04-10 07:19:58 51°17.96 2°52.41 8.6 14.5 6 12.2
2003-04-10 07:20:04 51°17.98 2°52.42 9.8 14.4 8 12.3
2003-04-10 07:20:08 51°18 2°52.42 11.3 14.3 9 12.5
2003-04-10 07:20:14 51°18.02 2°52.43 12.3 14.2 10 12.2
2003-04-10 07:20:18 51°18.04 2°52.43 14.6 14.2 12 12.5
2003-04-10 07:20:24 51°18.06 2°52.44 15.7 14.2 13 12.3
2003-04-10 07:20:28 51°18.08 2°52.45 18 14.2 15 12.4
2003-04-10 07:20:34 51°18.1 2°52.46 20.4 14.3 18 12.4
2003-04-10 07:20:38 51°18.11 2°52.47 22.8 14.3 20 12.4
2003-04-10 07:20:44 51°18.14 2°52.49 26.1 14.4 23 12.4
2003-04-10 07:20:48 51°18.15 2°52.5 28.8 14.4 26 12.5
2003-04-10 07:20:54 51°18.17 2°52.52 30.9 14.4 27 12.6
2003-04-10 07:20:58 51°18.19 2°52.53 32.4 14.5 29 12.6
2003-04-10 07:21:04 51°18.21 2°52.55 34.3 14.5 30 12.6
2003-04-10 07:21:08 51°18.22 2°52.57 35.1 14.5 31 12.5
2003-04-10 07:21:14 51°18.24 2°52.59 36.5 14.5 33 12.8
2003-04-10 07:21:18 51°18.25 2°52.6 37 14.5 33 12.5
2003-04-10 07:21:24 51°18.27 2°52.62 37.9 14.4 34 12.8
2003-04-10 07:21:28 51°18.29 2°52.64 38.3 14.4 34 12.7
2003-04-10 07:21:34 51°18.31 2°52.66 38.4 14.4 34 12.7
2003-04-10 07:21:38 51°18.32 2°52.67 38.7 14.5 34 12.8
2003-04-10 07:21:44 51°18.34 2°52.69 38.7 14.6 34 12.8
2003-04-10 07:21:48 51°18.35 2°52.71 38.5 14.6 34 12.9
2003-04-10 07:21:54 51°18.37 2°52.73 38.7 14.6 34 12.8
2003-04-10 07:21:58 51°18.39 2°52.74 38.6 14.6 34 12.9
2003-04-10 07:22:04 51°18.41 2°52.77 38.4 14.6 34 12.9
2003-04-10 07:22:08 51°18.42 2°52.78 38.3 14.6 34 12.8
2003-04-10 07:22:14 51°18.44 2°52.8 39.2 14.6 35 12.9
2003-04-10 07:22:18 51°18.45 2°52.82 40.5 14.6 36 12.7
2003-04-10 07:22:24 51°18.47 2°52.84 41.5 14.5 37 12.9
2003-04-10 07:22:28 51°18.48 2°52.86 41.7 14.5 38 13
2003-04-10 07:22:34 51°18.5 2°52.88 42.1 14.5 38 13
2003-04-10 07:22:38 51°18.52 2°52.9 42.4 14.5 38 12.9
2003-04-10 07:22:44 51°18.53 2°52.92 42.8 14.4 39 13.1
2003-04-10 07:22:48 51°18.55 2°52.94 42.9 14.4 39 13.1
2003-04-10 07:22:54 51°18.57 2°52.96 42.9 14.4 39 13.1
2003-04-10 07:22:58 51°18.58 2°52.98 42.9 14.4 39 13
2003-04-10 07:23:04 51°18.6 2°53 43.1 14.4 38 13.1
2003-04-10 07:23:08 51°18.61 2°53.02 42.4 14.4 38 13.1
2003-04-10 07:23:14 51°18.63 2°53.04 42.5 14.4 38 13.1
2003-04-10 07:23:18 51°18.64 2°53.06 42.2 14.4 38 13.3
2003-04-10 07:23:24 51°18.66 2°53.08 42.8 14.4 38 13.2
2003-04-10 07:23:28 51°18.67 2°53.1 42.4 14.4 38 13.1
2003-04-10 07:23:34 51°18.69 2°53.12 42 14.5 38 13.1
2003-04-10 07:23:38 51°18.7 2°53.14 42 14.4 38 13.3
2003-04-10 07:23:44 51°18.72 2°53.16 42.2 14.4 38 13.2
2003-04-10 07:23:48 51°18.74 2°53.18 42.2 14.4 39 13.3
2003-04-10 07:23:54 51°18.75 2°53.2 43.8 14.4 40 13.2
2003-04-10 07:23:58 51°18.77 2°53.22 44.8 14.4 41 13.3
2003-04-10 07:24:04 51°18.78 2°53.24 45.7 14.5 42 13.4
2003-04-10 07:24:08 51°18.79 2°53.26 46.4 14.5 43 13.2
2003-04-10 07:24:14 51°18.81 2°53.29 48.6 14.4 46 13.5
2003-04-10 07:24:18 51°18.82 2°53.31 50.1 14.4 47 13.3
2003-04-10 07:24:24 51°18.84 2°53.34 52 14.4 48 13.3
2003-04-10 07:24:28 51°18.85 2°53.36 52 14.4 48 13.1
2003-04-10 07:24:34 51°18.86 2°53.39 52.6 14.4 49 13.4
2003-04-10 07:24:38 51°18.87 2°53.4 53.7 14.4 49 13.4
2003-04-10 07:24:44 51°18.89 2°53.43 53.7 14.4 50 13.5
2003-04-10 07:24:48 51°18.9 2°53.45 54.4 14.4 50 13.5
2003-04-10 07:24:54 51°18.92 2°53.48 54.4 14.5 50 13.6
2003-04-10 07:24:58 51°18.93 2°53.5 54.4 14.4 50 13.4
2003-04-10 07:25:04 51°18.94 2°53.53 54.4 14.5 50 13.5
2003-04-10 07:25:08 51°18.95 2°53.55 53.8 14.5 49 13.4
2003-04-10 07:25:14 51°18.97 2°53.58 53.8 14.5 50 13.5
2003-04-10 07:25:18 51°18.98 2°53.6 54.4 14.5 49 13.5
2003-04-10 07:25:24 51°18.99 2°53.63 53.9 14.5 49 13.6
2003-04-10 07:25:28 51°19 2°53.65 54.2 14.4 49 13.5
2003-04-10 07:25:34 51°19.02 2°53.68 53.7 14.4 49 13.5
2003-04-10 07:25:38 51°19.03 2°53.7 53.9 14.4 49 13.8
2003-04-10 07:25:44 51°19.05 2°53.73 54.4 14.4 50 13.4
2003-04-10 07:25:48 51°19.06 2°53.74 54.1 14.3 49 13.4
2003-04-10 07:25:54 51°19.07 2°53.77 53.4 14.4 48 13.6
2003-04-10 07:25:58 51°19.08 2°53.79 53.5 14.4 48 13.4
2003-04-10 07:26:04 51°19.1 2°53.82 53.4 14.4 48 13.7
2003-04-10 07:26:08 51°19.11 2°53.84 53.8 14.3 48 13.5
2003-04-10 07:26:14 51°19.13 2°53.87 53.7 14.3 48 13.8
2003-04-10 07:26:18 51°19.14 2°53.89 53.7 14.3 48 13.6
2003-04-10 07:26:24 51°19.15 2°53.91 53.7 14.2 49 13.6
2003-04-10 07:26:28 51°19.16 2°53.93 54.5 14.2 50 13.7
2003-04-10 07:26:34 51°19.18 2°53.96 58 14.2 53 13.6
2003-04-10 07:26:38 51°19.18 2°53.99 60.9 14.2 55 13.4
2003-04-10 07:26:44 51°19.2 2°54.02 62.8 14.2 58 13.5
2003-04-10 07:26:48 51°19.2 2°54.04 64.6 14.2 59 13.6
2003-04-10 07:26:54 51°19.22 2°54.07 66.1 14.2 61 13.7
2003-04-10 07:26:58 51°19.22 2°54.1 67.2 14.2 62 13.8
2003-04-10 07:27:04 51°19.23 2°54.13 69.3 14.2 63 13.7
2003-04-10 07:27:08 51°19.24 2°54.15 69.7 14.2 64 13.6
2003-04-10 07:27:14 51°19.25 2°54.19 69.7 14.3 64 13.7
2003-04-10 07:27:18 51°19.26 2°54.21 70.4 14.3 65 13.7
2003-04-10 07:27:24 51°19.27 2°54.24 70.9 14.3 65 13.6
2003-04-10 07:27:28 51°19.27 2°54.27 71.1 14.3 64 13.7
2003-04-10 07:27:34 51°19.28 2°54.3 70.3 14.3 65 13.6
2003-04-10 07:27:38 51°19.29 2°54.32 71.1 14.3 64 13.5
2003-04-10 07:27:44 51°19.3 2°54.36 70.1 14.3 64 13.6
2003-04-10 07:27:48 51°19.31 2°54.38 70.6 14.4 64 13.6
2003-04-10 07:27:54 51°19.32 2°54.42 70.1 14.3 65 13.4
2003-04-10 07:27:58 51°19.33 2°54.44 70.5 14.4 64 13.5
2003-04-10 07:28:04 51°19.34 2°54.47 70.2 14.3 65 13.5
2003-04-10 07:28:08 51°19.34 2°54.49 70.5 14.3 64 13.6
2003-04-10 07:28:14 51°19.35 2°54.53 70.6 14.3 65 13.4
2003-04-10 07:28:18 51°19.36 2°54.55 70.7 14.3 64 13.6
2003-04-10 07:28:24 51°19.37 2°54.59 70.1 14.3 64 13.7
2003-04-10 07:28:28 51°19.38 2°54.61 70.2 14.3 64 13.5
2003-04-10 07:28:34 51°19.39 2°54.64 70 14.3 64 13.7
2003-04-10 07:28:38 51°19.39 2°54.67 70.6 14.3 64 13.6
2003-04-10 07:28:44 51°19.4 2°54.7 70.3 14.3 64 13.6
2003-04-10 07:28:48 51°19.41 2°54.72 70.4 14.3 64 13.8
2003-04-10 07:28:54 51°19.42 2°54.76 70 14.3 64 13.7
2003-04-10 07:28:58 51°19.43 2°54.78 69.8 14.3 64 13.4
2003-04-10 07:29:04 51°19.44 2°54.81 69.6 14.2 64 13.4
2003-04-10 07:29:08 51°19.45 2°54.84 69.7 14.2 64 13.6
2003-04-10 07:29:14 51°19.46 2°54.87 69.3 14.2 63 13.5
2003-04-10 07:29:18 51°19.46 2°54.89 69.2 14.2 63 13.6
2003-04-10 07:29:24 51°19.48 2°54.93 69 14.3 63 13.7
2003-04-10 07:29:28 51°19.48 2°54.95 69.1 14.3 64 13.4
2003-04-10 07:29:34 51°19.49 2°54.98 69.4 14.3 63 13.6
2003-04-10 07:29:38 51°19.5 2°55 69.3 14.3 63 13.7
2003-04-10 07:29:44 51°19.51 2°55.04 69.9 14.3 63 13.7
2003-04-10 07:29:48 51°19.52 2°55.06 69.8 14.3 64 13.8
2003-04-10 07:29:54 51°19.53 2°55.1 70.9 14.3 64 13.7
2003-04-10 07:29:58 51°19.53 2°55.12 70.9 14.3 65 13.7
2003-04-10 07:30:04 51°19.54 2°55.15 71 14.3 64 13.9
2003-04-10 07:30:08 51°19.55 2°55.18 71.5 14.2 66 14
2003-04-10 07:30:14 51°19.56 2°55.21 71.5 14.2 65 13.8
2003-04-10 07:30:18 51°19.57 2°55.23 71.1 14.3 65 13.8
2003-04-10 07:30:24 51°19.58 2°55.27 71.3 14.3 65 13.9
2003-04-10 07:30:28 51°19.58 2°55.29 71 14.2 65 13.6
2003-04-10 07:30:34 51°19.59 2°55.32 71.8 14.2 65 13.8
2003-04-10 07:30:38 51°19.6 2°55.35 71.2 14.2 65 13.6
2003-04-10 07:30:44 51°19.61 2°55.38 71.1 14.2 65 13.6
2003-04-10 07:30:48 51°19.62 2°55.4 71.5 14.2 65 13.8
2003-04-10 07:30:54 51°19.63 2°55.44 70.7 14.3 65 13.7
2003-04-10 07:30:58 51°19.63 2°55.46 71.5 14.3 65 13.6
2003-04-10 07:31:04 51°19.64 2°55.5 71.4 14.3 65 13.8
2003-04-10 07:31:08 51°19.65 2°55.52 70.6 14.3 65 13.7
2003-04-10 07:31:14 51°19.66 2°55.55 70.9 14.3 65 13.7
2003-04-10 07:31:18 51°19.67 2°55.58 70.4 14.3 64 13.7
2003-04-10 07:31:24 51°19.68 2°55.61 70.9 14.3 65 13.6
2003-04-10 07:31:28 51°19.68 2°55.63 71.3 14.2 66 13.7
2003-04-10 07:31:34 51°19.69 2°55.67 73.9 14.2 67 13.7
2003-04-10 07:31:38 51°19.7 2°55.69 73.7 14.2 68 13.9
2003-04-10 07:31:44 51°19.71 2°55.73 75.7 14.2 70 13.8
2003-04-10 07:31:48 51°19.71 2°55.75 75.5 14.2 69 13.7
2003-04-10 07:31:54 51°19.72 2°55.79 75.6 14.1 70 13.6
2003-04-10 07:31:58 51°19.73 2°55.81 76.2 14.2 70 13.6
2003-04-10 07:32:04 51°19.73 2°55.85 76.9 14.2 71 13.6
2003-04-10 07:32:08 51°19.74 2°55.87 76.9 14.3 70 13.7
2003-04-10 07:32:14 51°19.75 2°55.91 76.8 14.2 71 13.6
2003-04-10 07:32:18 51°19.75 2°55.93 76.9 14.2 71 13.6
2003-04-10 07:32:24 51°19.76 2°55.96 77.2 14.2 71 13.7
2003-04-10 07:32:28 51°19.76 2°55.99 77.7 14.2 71 13.6
2003-04-10 07:32:34 51°19.77 2°56.02 77.6 14.2 71 13.5
2003-04-10 07:32:38 51°19.78 2°56.05 78 14.2 72 13.5
2003-04-10 07:32:44 51°19.78 2°56.08 77.4 14.2 72 13.2
2003-04-10 07:32:48 51°19.79 2°56.11 78.2 14.2 71 13.2
2003-04-10 07:32:54 51°19.8 2°56.14 76.6 14.2 71 13.4
2003-04-10 07:32:58 51°19.8 2°56.17 77.7 14.2 72 13.3
2003-04-10 07:33:04 51°19.81 2°56.2 76.6 14.2 71 13.2
2003-04-10 07:33:08 51°19.81 2°56.23 76.6 14.2 70 13.3
2003-04-10 07:33:14 51°19.82 2°56.26 76.9 14.2 71 13.3
2003-04-10 07:33:18 51°19.83 2°56.29 76.6 14.1 71 13.5
2003-04-10 07:33:24 51°19.83 2°56.32 77.9 14.1 71 13.7
2003-04-10 07:33:28 51°19.84 2°56.34 76.7 14.2 71 13.4
2003-04-10 07:33:34 51°19.85 2°56.38 77.6 14.2 71 13.5
2003-04-10 07:33:38 51°19.85 2°56.4 77 14.2 70 13.5
2003-04-10 07:33:44 51°19.86 2°56.44 76.5 14.2 71 13.3
2003-04-10 07:33:48 51°19.87 2°56.46 77.3 14.2 70 13.4
2003-04-10 07:33:54 51°19.87 2°56.5 76 14.3 70 13.5
2003-04-10 07:33:58 51°19.88 2°56.52 76 14.2 70 13.6
2003-04-10 07:34:04 51°19.89 2°56.56 76.9 14.2 70 13.6
2003-04-10 07:34:08 51°19.89 2°56.58 76.3 14.2 70 13.5
2003-04-10 07:34:14 51°19.9 2°56.62 76.7 14.2 71 13.4
2003-04-10 07:34:18 51°19.91 2°56.64 77 14.2 70 13.4
2003-04-10 07:34:24 51°19.91 2°56.68 77.3 14.2 72 13.7
2003-04-10 07:34:28 51°19.92 2°56.7 77.6 14.1 71 13.2
2003-04-10 07:34:34 51°19.93 2°56.74 76.7 14.2 71 13.1
2003-04-10 07:34:38 51°19.93 2°56.76 77.2 14.2 70 13.2
2003-04-10 07:34:44 51°19.94 2°56.79 76.1 14.1 70 13.3
2003-04-10 07:34:48 51°19.95 2°56.82 76.7 14.2 70 13.2
2003-04-10 07:34:54 51°19.95 2°56.85 76.4 14.2 70 13.1
2003-04-10 07:34:58 51°19.96 2°56.88 76.4 14.2 70 13.3
2003-04-10 07:35:04 51°19.97 2°56.91 77 14.2 71 13
2003-04-10 07:35:08 51°19.97 2°56.94 76.3 14.2 71 13.2
2003-04-10 07:35:14 51°19.98 2°56.97 77.4 14.2 71 13.1
2003-04-10 07:35:18 51°19.98 2°57 76.4 14.2 70 13.2
2003-04-10 07:35:24 51°19.99 2°57.03 77.3 14.2 70 13.3
2003-04-10 07:35:28 51°20 2°57.06 76.7 14.2 70 13.3
2003-04-10 07:35:34 51°20.01 2°57.09 76.2 14.2 70 13.1
2003-04-10 07:35:38 51°20.01 2°57.12 76.6 14.3 70 13.2
2003-04-10 07:35:44 51°20.02 2°57.15 76.7 14.2 71 13.3
2003-04-10 07:35:48 51°20.02 2°57.17 76.9 14.2 71 13
2003-04-10 07:35:54 51°20.03 2°57.21 76.9 14.2 71 12.9
2003-04-10 07:35:58 51°20.04 2°57.23 76.9 14.2 70 12.9
2003-04-10 07:36:04 51°20.04 2°57.27 76.2 14.2 70 13.1
2003-04-10 07:36:08 51°20.05 2°57.29 76.1 14.2 70 13.2
2003-04-10 07:36:14 51°20.06 2°57.33 76.9 14.1 71 13.1
2003-04-10 07:36:18 51°20.06 2°57.35 76.4 14.2 70 13
2003-04-10 07:36:24 51°20.07 2°57.39 76.3 14.2 70 13.1
2003-04-10 07:36:28 51°20.08 2°57.41 75.7 14.2 70 13
2003-04-10 07:36:34 51°20.08 2°57.45 76.2 14.2 70 13
2003-04-10 07:36:38 51°20.09 2°57.47 76.4 14.2 71 13
2003-04-10 07:36:44 51°20.1 2°57.51 76.2 14.2 71 13.1
2003-04-10 07:36:48 51°20.1 2°57.53 76.2 14.2 70 12.9
2003-04-10 07:36:54 51°20.11 2°57.57 76.8 14.2 71 12.8
2003-04-10 07:36:58 51°20.12 2°57.59 76.5 14.2 70 13
2003-04-10 07:37:04 51°20.12 2°57.62 76.2 14.2 70 13
2003-04-10 07:37:08 51°20.13 2°57.65 76.2 14.2 70 13.1
2003-04-10 07:37:14 51°20.14 2°57.68 76.8 14.1 71 13.2
2003-04-10 07:37:18 51°20.14 2°57.71 76.9 14.1 71 13.1
2003-04-10 07:37:24 51°20.15 2°57.74 76.3 14.2 71 12.9
2003-04-10 07:37:28 51°20.15 2°57.77 76.9 14.2 71 12.9
2003-04-10 07:37:34 51°20.16 2°57.8 76.2 14.2 71 12.9
2003-04-10 07:37:38 51°20.17 2°57.83 76.7 14.2 71 12.9
2003-04-10 07:37:44 51°20.18 2°57.86 76.2 14.2 70 12.9
2003-04-10 07:37:48 51°20.18 2°57.89 76.2 14.2 70 12.9
2003-04-10 07:37:54 51°20.19 2°57.92 76.3 14.2 71 12.9
2003-04-10 07:37:58 51°20.19 2°57.94 76.7 14.2 70 12.9
2003-04-10 07:38:04 51°20.2 2°57.98 75.6 14.2 70 12.8
2003-04-10 07:38:08 51°20.21 2°58 76.2 14.2 70 12.7
2003-04-10 07:38:14 51°20.22 2°58.04 76.3 14.2 70 12.8
2003-04-10 07:38:18 51°20.22 2°58.06 76 14.2 70 12.9
2003-04-10 07:38:24 51°20.23 2°58.1 76.2 14.2 70 12.9
2003-04-10 07:38:28 51°20.23 2°58.12 76.2 14.2 70 12.9
2003-04-10 07:38:34 51°20.24 2°58.16 76.2 14.2 70 13
2003-04-10 07:38:38 51°20.25 2°58.18 76.9 14.2 70 12.9
2003-04-10 07:38:44 51°20.26 2°58.22 76.2 14.2 70 12.8
2003-04-10 07:38:48 51°20.26 2°58.24 76.1 14.2 70 12.8
2003-04-10 07:38:54 51°20.27 2°58.28 76.8 14.3 69 12.7
2003-04-10 07:38:58 51°20.27 2°58.3 75.4 14.3 70 12.7
2003-04-10 07:39:04 51°20.28 2°58.34 76.3 14.3 70 12.7
2003-04-10 07:39:08 51°20.29 2°58.36 76.2 14.3 70 12.7
2003-04-10 07:39:14 51°20.3 2°58.39 76.7 14.2 71 12.8
2003-04-10 07:39:18 51°20.3 2°58.42 76.8 14.2 70 12.7
2003-04-10 07:39:24 51°20.31 2°58.45 76.2 14.2 71 12.5
2003-04-10 07:39:28 51°20.32 2°58.48 77.1 14.2 69 12.5
2003-04-10 07:39:34 51°20.32 2°58.51 74.9 14.2 69 12.6
2003-04-10 07:39:38 51°20.33 2°58.54 75.8 14.2 69 12.6
2003-04-10 07:39:44 51°20.34 2°58.57 76.3 14.2 70 12.5
2003-04-10 07:39:48 51°20.34 2°58.59 76.3 14.2 70 12.5
2003-04-10 07:39:54 51°20.35 2°58.63 76.5 14.2 70 12.4
2003-04-10 07:39:58 51°20.36 2°58.65 76.5 14.2 70 12.4
2003-04-10 07:40:04 51°20.36 2°58.69 76.3 14.2 70 12.4
2003-04-10 07:40:08 51°20.37 2°58.71 75.8 14.2 69 12.2
2003-04-10 07:40:14 51°20.38 2°58.75 76.5 14.2 70 12.4
2003-04-10 07:40:18 51°20.38 2°58.77 76.2 14.2 69 12.5
2003-04-10 07:40:24 51°20.39 2°58.81 76.1 14.1 70 12.2
2003-04-10 07:40:28 51°20.4 2°58.83 76.8 14.1 70 12.2
2003-04-10 07:40:34 51°20.41 2°58.86 75.6 14.1 70 12.3
2003-04-10 07:40:38 51°20.41 2°58.89 76.8 14.1 70 12.2
2003-04-10 07:40:44 51°20.42 2°58.92 76.4 14.1 70 12.2
2003-04-10 07:40:48 51°20.42 2°58.95 76.2 14.2 70 12.4
2003-04-10 07:40:54 51°20.43 2°58.98 76.3 14.2 69 12.5
2003-04-10 07:40:58 51°20.44 2°59.01 76.5 14.2 70 12.5
2003-04-10 07:41:04 51°20.45 2°59.04 76.5 14.2 70 12.3
2003-04-10 07:41:08 51°20.45 2°59.06 76.3 14.1 70 12.3
2003-04-10 07:41:14 51°20.46 2°59.1 76.6 14.1 70 12.2
2003-04-10 07:41:18 51°20.47 2°59.12 76.2 14.1 70 12.4
2003-04-10 07:41:24 51°20.47 2°59.16 75.8 14.1 69 12.5
2003-04-10 07:41:28 51°20.48 2°59.18 76.6 14 70 12.4
2003-04-10 07:41:34 51°20.49 2°59.22 76.4 14 70 12.5
2003-04-10 07:41:38 51°20.49 2°59.24 76.3 14.1 69 12.5
2003-04-10 07:41:44 51°20.5 2°59.27 76.5 14.1 70 12.6
2003-04-10 07:41:48 51°20.51 2°59.3 76.5 14.1 70 12.4
2003-04-10 07:41:54 51°20.51 2°59.33 76 14 69 12.3
2003-04-10 07:41:58 51°20.52 2°59.36 76.2 14 70 12.3
2003-04-10 07:42:04 51°20.53 2°59.39 76.9 14 70 12.4
2003-04-10 07:42:08 51°20.53 2°59.41 76.3 14 70 12.3
2003-04-10 07:42:14 51°20.54 2°59.45 77.3 14 70 12.3
2003-04-10 07:42:18 51°20.55 2°59.47 76.5 14 70 12.2
2003-04-10 07:42:24 51°20.55 2°59.51 76.7 14 70 12.1
2003-04-10 07:42:28 51°20.56 2°59.53 76.9 14 70 12.1
2003-04-10 07:42:34 51°20.57 2°59.57 76.3 14.1 70 12.1
2003-04-10 07:42:38 51°20.57 2°59.59 76.6 14.1 70 12.2
2003-04-10 07:42:44 51°20.58 2°59.63 75.8 14 70 12.2
2003-04-10 07:42:48 51°20.59 2°59.65 76.7 14 70 12.1
2003-04-10 07:42:54 51°20.59 2°59.68 76.5 14 70 12.1
2003-04-10 07:42:58 51°20.6 2°59.71 76 14 70 12.1
2003-04-10 07:43:04 51°20.61 2°59.74 76.4 14 70 12
2003-04-10 07:43:08 51°20.61 2°59.76 76.3 14 70 12.2
2003-04-10 07:43:14 51°20.62 2°59.8 75.7 14 69 12.1
2003-04-10 07:43:18 51°20.63 2°59.82 76.3 14 70 12.2
2003-04-10 07:43:24 51°20.63 2°59.86 76.2 14 69 12.2
2003-04-10 07:43:28 51°20.64 2°59.88 76.1 14 70 12.1
2003-04-10 07:43:34 51°20.65 2°59.92 76.5 14.1 70 12.2
2003-04-10 07:43:38 51°20.65 2°59.94 76.4 14.1 70 12.3
2003-04-10 07:43:44 51°20.66 2°59.97 76.5 14.1 70 12.1
2003-04-10 07:43:48 51°20.67 3°0 76.4 14.1 70 11.9
2003-04-10 07:43:54 51°20.67 3°0.03 76.3 14.1 70 11.9
2003-04-10 07:43:58 51°20.68 3°0.06 77 14.1 70 12
2003-04-10 07:44:04 51°20.69 3°0.09 76.2 14.1 70 12.1
2003-04-10 07:44:08 51°20.69 3°0.12 76.4 14.1 70 12.2
2003-04-10 07:44:14 51°20.7 3°0.15 76.4 14.1 70 12.1
2003-04-10 07:44:18 51°20.71 3°0.17 76.1 14.1 70 12
2003-04-10 07:44:24 51°20.72 3°0.21 76.2 14.1 70 11.9
2003-04-10 07:44:28 51°20.72 3°0.23 76.3 14.1 70 12
2003-04-10 07:44:34 51°20.73 3°0.27 76.7 14.1 70 12.1
2003-04-10 07:44:38 51°20.73 3°0.29 76.9 14.1 70 12
2003-04-10 07:44:44 51°20.74 3°0.33 76.2 14.1 70 12
2003-04-10 07:44:48 51°20.75 3°0.35 76.7 14.2 70 12.1
2003-04-10 07:44:54 51°20.76 3°0.39 76.2 14.1 70 12
2003-04-10 07:44:58 51°20.76 3°0.41 76.2 14.2 70 12.2
2003-04-10 07:45:04 51°20.77 3°0.45 76.5 14.2 70 12.1
2003-04-10 07:45:08 51°20.78 3°0.47 76 14.2 69 12
2003-04-10 07:45:14 51°20.78 3°0.5 76.5 14.2 69 12.1
2003-04-10 07:45:18 51°20.79 3°0.53 75.6 14.1 69 12.1
2003-04-10 07:45:24 51°20.8 3°0.56 76.7 14.1 70 11.9
2003-04-10 07:45:28 51°20.8 3°0.59 76.9 14.1 70 11.9
2003-04-10 07:45:34 51°20.81 3°0.62 76.2 14.1 70 12
2003-04-10 07:45:38 51°20.82 3°0.64 76.3 14.1 70 11.9
2003-04-10 07:45:44 51°20.82 3°0.68 75.9 14.1 69 12
2003-04-10 07:45:48 51°20.83 3°0.7 76.1 14.1 70 12.1
2003-04-10 07:45:54 51°20.84 3°0.74 76.9 14.1 70 12.2
2003-04-10 07:45:58 51°20.84 3°0.76 76.1 14.1 70 12.1
2003-04-10 07:46:04 51°20.85 3°0.8 76.5 14 71 12.3
2003-04-10 07:46:08 51°20.86 3°0.82 76.6 14 70 12
2003-04-10 07:46:14 51°20.86 3°0.85 76.5 14 70 12.1
2003-04-10 07:46:18 51°20.87 3°0.88 76.4 14 70 12.1
2003-04-10 07:46:24 51°20.88 3°0.91 76.1 14 70 12
2003-04-10 07:46:28 51°20.88 3°0.94 76.8 13.9 70 12
2003-04-10 07:46:34 51°20.89 3°0.97 76.4 14 70 12
2003-04-10 07:46:38 51°20.9 3°0.99 75.7 14 69 11.9
2003-04-10 07:46:44 51°20.9 3°1.03 76.4 14 70 12
2003-04-10 07:46:48 51°20.91 3°1.05 76 14 69 12.1
2003-04-10 07:46:54 51°20.92 3°1.09 76.9 14 70 12.1
2003-04-10 07:46:58 51°20.92 3°1.11 76.2 14 70 12
2003-04-10 07:47:04 51°20.93 3°1.15 76.4 14 70 12
2003-04-10 07:47:08 51°20.93 3°1.17 76.2 14 70 12.1
2003-04-10 07:47:14 51°20.94 3°1.2 75.5 14 69 12
2003-04-10 07:47:18 51°20.95 3°1.23 76.2 14 70 11.9
2003-04-10 07:47:24 51°20.96 3°1.26 76.2 13.9 69 12
2003-04-10 07:47:28 51°20.96 3°1.29 76.2 14 70 12.1
2003-04-10 07:47:34 51°20.97 3°1.32 76.3 14 69 11.9
2003-04-10 07:47:38 51°20.98 3°1.34 76 14 70 12
2003-04-10 07:47:44 51°20.98 3°1.38 76 14 70 12.1
2003-04-10 07:47:48 51°20.99 3°1.4 76.1 14 70 12.3
2003-04-10 07:47:54 51°21 3°1.44 76.4 14 70 12.1
2003-04-10 07:47:58 51°21 3°1.46 76.9 14 70 12.1
2003-04-10 07:48:04 51°21.01 3°1.5 76.4 14 70 12
2003-04-10 07:48:08 51°21.02 3°1.52 77.1 14 70 12.1
2003-04-10 07:48:14 51°21.02 3°1.55 76.1 13.9 70 12.2
2003-04-10 07:48:18 51°21.03 3°1.58 76.5 13.9 70 12.3
2003-04-10 07:48:24 51°21.04 3°1.61 76.4 13.9 70 12.1
2003-04-10 07:48:28 51°21.04 3°1.63 76.7 13.9 70 12
2003-04-10 07:48:34 51°21.05 3°1.67 76.5 14 70 12.2
2003-04-10 07:48:38 51°21.06 3°1.69 76.7 13.9 70 12
2003-04-10 07:48:44 51°21.06 3°1.73 75.9 13.9 70 12
2003-04-10 07:48:48 51°21.07 3°1.75 77 13.9 70 12
2003-04-10 07:48:54 51°21.08 3°1.78 76.2 13.9 69 12.3
2003-04-10 07:48:58 51°21.08 3°1.81 75.6 13.9 69 12
2003-04-10 07:49:04 51°21.09 3°1.84 76.5 13.9 70 12.1
2003-04-10 07:49:08 51°21.1 3°1.87 76.2 13.9 70 12.2
2003-04-10 07:49:14 51°21.1 3°1.9 75.9 13.9 70 12.1
2003-04-10 07:49:18 51°21.11 3°1.92 76.3 13.9 70 12
2003-04-10 07:49:24 51°21.12 3°1.96 76.9 13.9 70 12.2
2003-04-10 07:49:28 51°21.12 3°1.98 75.9 13.9 70 12.1
2003-04-10 07:49:34 51°21.13 3°2.02 77 13.9 70 12
2003-04-10 07:49:38 51°21.13 3°2.04 76.7 14 70 12
2003-04-10 07:49:44 51°21.14 3°2.07 75.8 14 70 12.1
2003-04-10 07:49:48 51°21.15 3°2.1 76.5 14 70 12.1
2003-04-10 07:49:54 51°21.16 3°2.13 76.3 14 70 12.1
2003-04-10 07:49:58 51°21.16 3°2.16 76.7 14 71 11.8
2003-04-10 07:50:04 51°21.17 3°2.19 76.2 14 70 12.2
2003-04-10 07:50:08 51°21.17 3°2.21 75.8 14 70 12.2
2003-04-10 07:50:14 51°21.18 3°2.25 75.4 14 70 12.1
2003-04-10 07:50:18 51°21.19 3°2.27 76.1 14 70 12
2003-04-10 07:50:24 51°21.19 3°2.31 75.8 13.9 70 12.1
2003-04-10 07:50:28 51°21.2 3°2.33 76.4 14 70 12.2
2003-04-10 07:50:34 51°21.21 3°2.37 76.2 14 70 12.2
2003-04-10 07:50:38 51°21.21 3°2.39 76.3 14 70 12.2
2003-04-10 07:50:44 51°21.22 3°2.42 76.2 14.1 70 12.3
2003-04-10 07:50:48 51°21.23 3°2.45 76.2 14.1 70 12.4
2003-04-10 07:50:54 51°21.23 3°2.48 75.6 14 70 12.3
2003-04-10 07:50:58 51°21.24 3°2.51 76.5 14.1 70 12.4
2003-04-10 07:51:04 51°21.25 3°2.54 76.1 14.1 70 12.3
2003-04-10 07:51:08 51°21.25 3°2.56 76.4 14.1 70 12.3
2003-04-10 07:51:14 51°21.26 3°2.6 76.6 14.1 70 12.3
2003-04-10 07:51:18 51°21.27 3°2.62 76.3 14 70 12.3
2003-04-10 07:51:24 51°21.27 3°2.66 76.8 14.1 70 12.5
2003-04-10 07:51:28 51°21.28 3°2.68 75.7 14 70 12.4
2003-04-10 07:51:34 51°21.29 3°2.72 76.9 14 70 12.3
2003-04-10 07:51:38 51°21.29 3°2.74 75.8 14.1 70 12.3
2003-04-10 07:51:44 51°21.3 3°2.78 76.2 14.1 69 12.4
2003-04-10 07:51:48 51°21.31 3°2.8 76 14.1 70 12.3
2003-04-10 07:51:54 51°21.32 3°2.83 76.3 14.1 70 12.3
2003-04-10 07:51:58 51°21.32 3°2.86 76.7 14.1 70 12.4
2003-04-10 07:52:04 51°21.33 3°2.89 76.2 14.1 70 12.3
2003-04-10 07:52:08 51°21.33 3°2.92 76.5 14.1 71 12.4
2003-04-10 07:52:14 51°21.34 3°2.95 77.1 14.1 70 12.4
2003-04-10 07:52:18 51°21.35 3°2.98 76.5 14.2 70 12.5
2003-04-10 07:52:24 51°21.35 3°3.01 76.2 14.1 70 12.5
2003-04-10 07:52:28 51°21.36 3°3.03 76.7 14.1 70 12.5
2003-04-10 07:52:34 51°21.37 3°3.07 76.1 14.1 70 12.5
2003-04-10 07:52:38 51°21.37 3°3.09 76.5 14.2 70 12.5
2003-04-10 07:52:44 51°21.38 3°3.13 75.8 14.2 70 12.5
2003-04-10 07:52:48 51°21.39 3°3.15 76.2 14.2 70 12.6
2003-04-10 07:52:54 51°21.39 3°3.19 76.5 14.1 70 12.5
2003-04-10 07:52:58 51°21.4 3°3.21 76.6 14.2 70 12.5
2003-04-10 07:53:04 51°21.41 3°3.25 75.7 14.2 70 12.4
2003-04-10 07:53:08 51°21.41 3°3.27 76.2 14.1 71 12.4
2003-04-10 07:53:14 51°21.42 3°3.31 76.5 14.1 70 12.4
2003-04-10 07:53:18 51°21.43 3°3.33 76.2 14.1 70 12.4
2003-04-10 07:53:24 51°21.43 3°3.36 75.9 14.1 70 12.4
2003-04-10 07:53:28 51°21.44 3°3.39 76.5 14.1 70 12.5
2003-04-10 07:53:34 51°21.45 3°3.42 76.3 14.1 69 12.4
2003-04-10 07:53:38 51°21.45 3°3.45 75.4 14.1 70 12.5
2003-04-10 07:53:44 51°21.46 3°3.48 76.4 14.1 70 12.6
2003-04-10 07:53:48 51°21.47 3°3.5 76.2 14.1 70 12.5
2003-04-10 07:53:54 51°21.47 3°3.54 76.2 14.1 70 12.5
2003-04-10 07:53:58 51°21.48 3°3.56 76.3 14.1 69 12.6
2003-04-10 07:54:04 51°21.49 3°3.6 75.8 14.1 70 12.7
2003-04-10 07:54:08 51°21.49 3°3.62 75.6 14.1 70 12.5
2003-04-10 07:54:14 51°21.5 3°3.66 76.3 14.1 70 12.5
2003-04-10 07:54:18 51°21.51 3°3.68 76.3 14.1 70 12.5
2003-04-10 07:54:24 51°21.51 3°3.72 76.2 14.1 70 12.6
2003-04-10 07:54:28 51°21.52 3°3.74 76.2 14.1 70 12.6
2003-04-10 07:54:34 51°21.53 3°3.77 76.2 14.1 70 12.5
2003-04-10 07:54:38 51°21.53 3°3.8 76.1 14 70 12.5
2003-04-10 07:54:44 51°21.54 3°3.83 76.4 14 70 12.5
2003-04-10 07:54:48 51°21.55 3°3.86 76.5 14.1 70 12.5
2003-04-10 07:54:54 51°21.55 3°3.89 75.8 14 70 12.4
2003-04-10 07:54:58 51°21.56 3°3.91 76.6 14 70 12.7
2003-04-10 07:55:04 51°21.57 3°3.95 75.6 14 70 12.7
2003-04-10 07:55:08 51°21.57 3°3.97 76.1 14 70 12.6
2003-04-10 07:55:14 51°21.58 3°4.01 76.7 14 70 12.6
2003-04-10 07:55:18 51°21.59 3°4.03 76 14 70 12.6
2003-04-10 07:55:24 51°21.59 3°4.06 76.4 14 70 12.7
2003-04-10 07:55:28 51°21.6 3°4.09 76.4 14 70 12.6
2003-04-10 07:55:34 51°21.61 3°4.12 76 14.1 70 12.6
2003-04-10 07:55:38 51°21.61 3°4.15 76 14.1 70 12.6
2003-04-10 07:55:44 51°21.62 3°4.18 76.2 14.1 70 12.5
2003-04-10 07:55:48 51°21.63 3°4.2 76.4 14.1 70 12.4
2003-04-10 07:55:54 51°21.63 3°4.24 76.7 14 71 12.6
2003-04-10 07:55:58 51°21.64 3°4.26 76.5 14 70 12.6
2003-04-10 07:56:04 51°21.65 3°4.3 76.9 14 71 12.6
2003-04-10 07:56:08 51°21.65 3°4.32 76.5 14 70 12.6
2003-04-10 07:56:14 51°21.66 3°4.36 75.8 14 70 12.6
2003-04-10 07:56:18 51°21.67 3°4.38 75.8 14 70 12.6
2003-04-10 07:56:24 51°21.67 3°4.42 76.5 14 70 12.6
2003-04-10 07:56:28 51°21.68 3°4.44 76.2 14 70 12.5
2003-04-10 07:56:34 51°21.69 3°4.47 76 14 70 12.7
2003-04-10 07:56:38 51°21.69 3°4.5 76 14 70 12.6
2003-04-10 07:56:44 51°21.7 3°4.53 76.5 13.9 70 12.6
2003-04-10 07:56:48 51°21.71 3°4.55 76.7 14 70 12.7
2003-04-10 07:56:54 51°21.71 3°4.59 76.4 14 70 12.5
2003-04-10 07:56:58 51°21.72 3°4.61 76.1 14 70 12.6
2003-04-10 07:57:04 51°21.73 3°4.65 76.2 13.9 70 12.6
2003-04-10 07:57:08 51°21.73 3°4.67 76.1 13.9 70 12.6
2003-04-10 07:57:14 51°21.74 3°4.71 76.5 13.9 70 12.7
2003-04-10 07:57:18 51°21.74 3°4.73 75.6 14 70 12.7
2003-04-10 07:57:24 51°21.75 3°4.76 76.2 14 71 12.6
2003-04-10 07:57:28 51°21.76 3°4.79 76.4 14 70 12.6
2003-04-10 07:57:34 51°21.77 3°4.82 76.2 14 70 12.7
2003-04-10 07:57:38 51°21.77 3°4.85 76.1 14 70 12.8
2003-04-10 07:57:44 51°21.78 3°4.88 76.2 13.9 70 12.7
2003-04-10 07:57:48 51°21.78 3°4.9 76.3 13.9 70 12.7
2003-04-10 07:57:54 51°21.79 3°4.94 76.2 13.9 70 12.9
2003-04-10 07:57:58 51°21.8 3°4.96 76.1 13.9 71 12.8
2003-04-10 07:58:04 51°21.8 3°5 76.5 13.8 70 12.8
2003-04-10 07:58:08 51°21.81 3°5.02 76.2 13.8 71 12.8
2003-04-10 07:58:14 51°21.82 3°5.05 75.9 13.8 70 12.8
2003-04-10 07:58:18 51°21.82 3°5.08 76 13.8 71 12.9
2003-04-10 07:58:24 51°21.83 3°5.11 76.2 13.8 71 12.9
2003-04-10 07:58:28 51°21.83 3°5.13 76.3 13.8 70 12.8
2003-04-10 07:58:34 51°21.84 3°5.17 76 13.8 71 12.9
2003-04-10 07:58:38 51°21.85 3°5.19 76.3 13.8 70 13
2003-04-10 07:58:44 51°21.85 3°5.23 76.1 13.8 71 13
2003-04-10 07:58:48 51°21.86 3°5.25 76 13.8 70 13
2003-04-10 07:58:54 51°21.87 3°5.28 76.3 13.9 70 12.9
2003-04-10 07:58:58 51°21.87 3°5.31 76.1 13.8 70 12.8
2003-04-10 07:59:04 51°21.88 3°5.34 76.8 13.8 70 12.9
2003-04-10 07:59:08 51°21.89 3°5.37 76.2 13.8 71 12.9
2003-04-10 07:59:14 51°21.89 3°5.4 76.2 13.9 70 12.9
2003-04-10 07:59:18 51°21.9 3°5.42 76.1 13.8 71 12.9
2003-04-10 07:59:24 51°21.91 3°5.46 76.9 13.8 70 13
2003-04-10 07:59:28 51°21.91 3°5.48 76 13.8 70 12.9
2003-04-10 07:59:34 51°21.92 3°5.52 76 13.8 70 13.1
2003-04-10 07:59:38 51°21.92 3°5.54 76.4 13.8 71 13
2003-04-10 07:59:44 51°21.93 3°5.57 76 13.8 70 13
2003-04-10 07:59:48 51°21.94 3°5.6 76.3 13.8 71 12.9
2003-04-10 07:59:54 51°21.94 3°5.63 76.2 13.8 70 13
2003-04-10 07:59:58 51°21.95 3°5.65 76 13.8 71 13.1
2003-04-10 08:00:04 51°21.96 3°5.69 76.8 13.8 70 13
2003-04-10 08:00:08 51°21.96 3°5.71 75.8 13.8 71 13.1
2003-04-10 08:00:14 51°21.97 3°5.75 76.7 13.8 71 13.1
2003-04-10 08:00:18 51°21.97 3°5.77 76.1 13.8 70 13
2003-04-10 08:00:24 51°21.98 3°5.8 76.3 13.8 71 13
2003-04-10 08:00:28 51°21.99 3°5.83 76.2 13.8 71 13
2003-04-10 08:00:34 51°21.99 3°5.86 76.4 13.7 71 13.1
2003-04-10 08:00:38 51°22 3°5.89 76.1 13.7 71 13.3
2003-04-10 08:00:44 51°22.01 3°5.92 76.2 13.8 71 13.1
2003-04-10 08:00:48 51°22.01 3°5.94 76.8 13.8 71 13.4
2003-04-10 08:00:54 51°22.02 3°5.98 76.2 13.7 71 13.2
2003-04-10 08:00:58 51°22.02 3°6 76.9 13.7 72 13.2
2003-04-10 08:01:04 51°22.03 3°6.04 76.2 13.8 70 13.1
2003-04-10 08:01:08 51°22.04 3°6.06 75.8 13.8 71 13.2
2003-04-10 08:01:14 51°22.05 3°6.09 76.8 13.8 71 13.2
2003-04-10 08:01:18 51°22.05 3°6.12 75.6 13.8 70 13.3
2003-04-10 08:01:24 51°22.06 3°6.15 76.2 13.8 71 13.3
2003-04-10 08:01:28 51°22.06 3°6.17 76.3 13.8 70 13.2
2003-04-10 08:01:34 51°22.07 3°6.21 76 13.8 71 13.3
2003-04-10 08:01:38 51°22.08 3°6.23 76.5 13.8 70 13.5
2003-04-10 08:01:44 51°22.08 3°6.27 76 13.8 70 13.5
2003-04-10 08:01:48 51°22.09 3°6.29 76.5 13.7 70 13.4
2003-04-10 08:01:54 51°22.1 3°6.32 76.1 13.7 70 13.2
2003-04-10 08:01:58 51°22.1 3°6.35 75.8 13.8 70 13.3
2003-04-10 08:02:04 51°22.11 3°6.38 75.7 13.8 70 13.4
2003-04-10 08:02:08 51°22.11 3°6.4 76.9 13.8 70 13.4
2003-04-10 08:02:14 51°22.12 3°6.44 75.9 13.7 70 13.5
2003-04-10 08:02:18 51°22.13 3°6.46 76.9 13.7 71 13.5
2003-04-10 08:02:24 51°22.13 3°6.5 76.7 13.7 71 13.5
2003-04-10 08:02:28 51°22.14 3°6.52 76.9 13.8 70 13.5
2003-04-10 08:02:34 51°22.15 3°6.55 76.9 13.8 71 13.6
2003-04-10 08:02:38 51°22.15 3°6.58 76.9 13.8 71 13.6
2003-04-10 08:02:44 51°22.16 3°6.61 76.5 13.8 71 13.6
2003-04-10 08:02:48 51°22.17 3°6.63 76.7 13.8 70 13.6
2003-04-10 08:02:54 51°22.17 3°6.67 76.2 13.8 70 13.7
2003-04-10 08:02:58 51°22.18 3°6.69 76.7 13.8 70 13.6
2003-04-10 08:03:04 51°22.19 3°6.73 76.1 13.8 70 13.7
2003-04-10 08:03:08 51°22.19 3°6.75 75.9 13.8 70 13.7
2003-04-10 08:03:14 51°22.2 3°6.78 76.1 13.8 70 13.7
2003-04-10 08:03:18 51°22.2 3°6.81 75.9 13.7 70 13.7
2003-04-10 08:03:24 51°22.21 3°6.84 76.4 13.7 69 13.7
2003-04-10 08:03:28 51°22.22 3°6.86 76 13.7 71 13.7
2003-04-10 08:03:34 51°22.23 3°6.9 76.8 13.7 70 13.7
2003-04-10 08:03:38 51°22.23 3°6.92 76.1 13.7 70 13.7
2003-04-10 08:03:44 51°22.24 3°6.95 76.1 13.6 71 13.7
2003-04-10 08:03:48 51°22.24 3°6.98 76.9 13.6 71 13.6
2003-04-10 08:03:54 51°22.25 3°7.01 76.5 13.6 70 13.8
2003-04-10 08:03:58 51°22.26 3°7.03 76.4 13.6 71 13.7
2003-04-10 08:04:04 51°22.26 3°7.07 76.2 13.6 70 13.5
2003-04-10 08:04:08 51°22.27 3°7.09 76.5 13.6 70 13.7
2003-04-10 08:04:14 51°22.28 3°7.12 75.8 13.6 70 13.7
2003-04-10 08:04:18 51°22.28 3°7.15 76.7 13.6 71 13.4
2003-04-10 08:04:24 51°22.29 3°7.18 76 13.6 70 13.5
2003-04-10 08:04:28 51°22.29 3°7.2 75.8 13.5 70 13.6
2003-04-10 08:04:34 51°22.3 3°7.24 75.8 13.5 70 13.4
2003-04-10 08:04:38 51°22.31 3°7.26 76 13.6 70 13.6
2003-04-10 08:04:44 51°22.31 3°7.29 76.4 13.6 70 13.7
2003-04-10 08:04:48 51°22.32 3°7.32 76.2 13.5 70 13.7
2003-04-10 08:04:54 51°22.33 3°7.35 76.5 13.5 71 13.8
2003-04-10 08:04:58 51°22.33 3°7.37 76.2 13.6 70 13.6
2003-04-10 08:05:04 51°22.34 3°7.41 76 13.5 70 13.6
2003-04-10 08:05:08 51°22.34 3°7.43 76 13.5 70 13.6
2003-04-10 08:05:14 51°22.35 3°7.46 76.5 13.5 70 13.6
2003-04-10 08:05:18 51°22.36 3°7.49 76 13.5 70 13.6
2003-04-10 08:05:24 51°22.36 3°7.52 76.2 13.5 70 13.7
2003-04-10 08:05:28 51°22.37 3°7.54 76.1 13.5 71 13.6
2003-04-10 08:05:34 51°22.38 3°7.58 76.2 13.6 70 13.6
2003-04-10 08:05:38 51°22.38 3°7.6 75.9 13.6 70 13.7
2003-04-10 08:05:44 51°22.39 3°7.63 76.4 13.5 70 13.7
2003-04-10 08:05:48 51°22.39 3°7.66 76.2 13.6 71 13.8
2003-04-10 08:05:54 51°22.4 3°7.69 76.8 13.6 70 13.8
2003-04-10 08:05:58 51°22.41 3°7.71 75.4 13.6 70 13.8
2003-04-10 08:06:04 51°22.42 3°7.75 76.7 13.5 70 13.9
2003-04-10 08:06:08 51°22.42 3°7.77 76.5 13.6 71 14
2003-04-10 08:06:14 51°22.43 3°7.8 76.5 13.6 70 14
2003-04-10 08:06:18 51°22.43 3°7.83 76.7 13.6 71 13.9
2003-04-10 08:06:24 51°22.44 3°7.86 76.7 13.6 70 13.9
2003-04-10 08:06:28 51°22.44 3°7.88 76.2 13.6 71 13.9
2003-04-10 08:06:34 51°22.45 3°7.92 76.1 13.6 70 14
2003-04-10 08:06:38 51°22.46 3°7.94 76.2 13.6 71 14
2003-04-10 08:06:44 51°22.46 3°7.97 76.2 13.6 71 14.2
2003-04-10 08:06:48 51°22.47 3°8 77.1 13.6 72 14
2003-04-10 08:06:54 51°22.48 3°8.03 78.1 13.6 73 13.9
2003-04-10 08:06:58 51°22.48 3°8.05 77.8 13.6 73 13.9
2003-04-10 08:07:04 51°22.49 3°8.09 79.7 13.6 74 13.8
2003-04-10 08:07:08 51°22.49 3°8.11 79.8 13.6 75 13.9
2003-04-10 08:07:14 51°22.5 3°8.15 80.1 13.6 75 13.9
2003-04-10 08:07:18 51°22.5 3°8.17 81.3 13.6 76 14
2003-04-10 08:07:24 51°22.5 3°8.21 81 13.6 76 13.9
2003-04-10 08:07:28 51°22.51 3°8.23 82.1 13.6 76 14
2003-04-10 08:07:34 51°22.51 3°8.27 82.6 13.6 78 14
2003-04-10 08:07:38 51°22.52 3°8.29 84.1 13.6 78 14
2003-04-10 08:07:44 51°22.52 3°8.32 83.7 13.6 79 13.9
2003-04-10 08:07:48 51°22.52 3°8.35 84.6 13.6 79 14.1
2003-04-10 08:07:54 51°22.53 3°8.38 84.5 13.6 80 14
2003-04-10 08:07:58 51°22.53 3°8.41 84.3 13.6 79 13.9
2003-04-10 08:08:04 51°22.53 3°8.44 85.1 13.7 79 14.1
2003-04-10 08:08:08 51°22.54 3°8.47 84.6 13.6 79 14.1
2003-04-10 08:08:14 51°22.54 3°8.5 84.4 13.6 80 14
2003-04-10 08:08:18 51°22.54 3°8.53 85.4 13.6 79 14.1
2003-04-10 08:08:24 51°22.55 3°8.56 84.4 13.7 79 14.1
2003-04-10 08:08:28 51°22.55 3°8.59 84.5 13.6 80 14.1
2003-04-10 08:08:34 51°22.55 3°8.62 85.2 13.6 79 14.1
2003-04-10 08:08:38 51°22.56 3°8.65 84.4 13.6 80 14.1
2003-04-10 08:08:44 51°22.56 3°8.68 85.6 13.6 79 14.1
2003-04-10 08:08:48 51°22.56 3°8.7 84 13.6 79 14.1
2003-04-10 08:08:54 51°22.57 3°8.74 84.4 13.6 79 14.1
2003-04-10 08:08:58 51°22.57 3°8.76 84.7 13.5 79 14
2003-04-10 08:09:04 51°22.57 3°8.8 85.2 13.6 80 14
2003-04-10 08:09:08 51°22.58 3°8.82 85 13.6 79 14
2003-04-10 08:09:14 51°22.58 3°8.86 84.9 13.6 80 14
2003-04-10 08:09:18 51°22.58 3°8.88 85.4 13.6 80 14.2
2003-04-10 08:09:24 51°22.59 3°8.92 84.8 13.6 80 14.1
2003-04-10 08:09:28 51°22.59 3°8.94 85.5 13.7 79 14
2003-04-10 08:09:34 51°22.6 3°8.98 83.6 13.6 79 14.1
2003-04-10 08:09:38 51°22.6 3°9 85.7 13.6 80 13.9
2003-04-10 08:09:44 51°22.6 3°9.04 84.2 13.6 79 14.2
2003-04-10 08:09:48 51°22.61 3°9.06 84.1 13.6 79 14.3
2003-04-10 08:09:54 51°22.61 3°9.1 84.3 13.6 79 14.4
2003-04-10 08:09:58 51°22.61 3°9.12 84 13.6 79 14.3
2003-04-10 08:10:04 51°22.62 3°9.16 84.9 13.7 80 14.2
2003-04-10 08:10:08 51°22.62 3°9.18 84.7 13.7 78 14.3
2003-04-10 08:10:14 51°22.62 3°9.22 83.7 13.6 79 14.4
2003-04-10 08:10:18 51°22.63 3°9.24 84.9 13.6 79 14.4
2003-04-10 08:10:24 51°22.63 3°9.27 83.9 13.6 79 14.3
2003-04-10 08:10:28 51°22.63 3°9.3 84.2 13.6 80 14.4